sensor_id;sensor_type;location;lat;lon;timestamp;P1;durP1;ratioP1;P2;durP2;ratioP2
43998;SDS011;51319;52.162;5.302;2024-01-16T00:00:52;45.25;;;13.45;;
43998;SDS011;51319;52.162;5.302;2024-01-16T00:03:19;22.95;;;4.03;;
43998;SDS011;51319;52.162;5.302;2024-01-16T00:05:46;34.47;;;10.85;;
43998;SDS011;51319;52.162;5.302;2024-01-16T00:08:13;29.58;;;3.83;;
43998;SDS011;51319;52.162;5.302;2024-01-16T00:10:41;19.27;;;3.30;;
43998;SDS011;51319;52.162;5.302;2024-01-16T00:13:08;33.90;;;4.88;;
43998;SDS011;51319;52.162;5.302;2024-01-16T00:15:35;29.05;;;8.00;;
43998;SDS011;51319;52.162;5.302;2024-01-16T00:18:02;27.30;;;5.20;;
43998;SDS011;51319;52.162;5.302;2024-01-16T00:20:29;23.70;;;3.15;;
43998;SDS011;51319;52.162;5.302;2024-01-16T00:22:56;24.55;;;3.20;;
43998;SDS011;51319;52.162;5.302;2024-01-16T00:25:23;12.95;;;2.53;;
43998;SDS011;51319;52.162;5.302;2024-01-16T00:27:51;22.83;;;5.22;;
43998;SDS011;51319;52.162;5.302;2024-01-16T00:30:18;22.50;;;3.42;;
43998;SDS011;51319;52.162;5.302;2024-01-16T00:32:45;20.17;;;2.28;;
43998;SDS011;51319;52.162;5.302;2024-01-16T00:35:12;17.65;;;2.00;;
43998;SDS011;51319;52.162;5.302;2024-01-16T00:37:39;15.05;;;2.38;;
43998;SDS011;51319;52.162;5.302;2024-01-16T00:40:06;26.13;;;2.28;;
43998;SDS011;51319;52.162;5.302;2024-01-16T00:42:35;20.33;;;2.28;;
43998;SDS011;51319;52.162;5.302;2024-01-16T00:45:02;25.15;;;4.95;;
43998;SDS011;51319;52.162;5.302;2024-01-16T00:47:29;28.17;;;4.15;;
43998;SDS011;51319;52.162;5.302;2024-01-16T00:49:56;15.15;;;3.30;;
43998;SDS011;51319;52.162;5.302;2024-01-16T00:52:23;10.45;;;2.67;;
43998;SDS011;51319;52.162;5.302;2024-01-16T00:54:50;14.93;;;2.08;;
43998;SDS011;51319;52.162;5.302;2024-01-16T00:57:17;11.60;;;2.28;;
43998;SDS011;51319;52.162;5.302;2024-01-16T00:59:46;19.60;;;2.00;;
43998;SDS011;51319;52.162;5.302;2024-01-16T01:02:13;20.60;;;2.03;;
43998;SDS011;51319;52.162;5.302;2024-01-16T01:04:42;12.98;;;2.50;;
43998;SDS011;51319;52.162;5.302;2024-01-16T01:07:12;18.75;;;2.08;;
43998;SDS011;51319;52.162;5.302;2024-01-16T01:09:40;19.23;;;2.58;;
43998;SDS011;51319;52.162;5.302;2024-01-16T01:12:07;14.38;;;1.80;;
43998;SDS011;51319;52.162;5.302;2024-01-16T01:14:35;21.80;;;2.20;;
43998;SDS011;51319;52.162;5.302;2024-01-16T01:17:02;15.45;;;2.20;;
43998;SDS011;51319;52.162;5.302;2024-01-16T01:19:29;15.52;;;1.75;;
43998;SDS011;51319;52.162;5.302;2024-01-16T01:21:56;18.30;;;2.35;;
43998;SDS011;51319;52.162;5.302;2024-01-16T01:24:24;22.65;;;2.55;;
43998;SDS011;51319;52.162;5.302;2024-01-16T01:26:51;15.57;;;2.53;;
43998;SDS011;51319;52.162;5.302;2024-01-16T01:29:18;22.90;;;2.00;;
43998;SDS011;51319;52.162;5.302;2024-01-16T01:31:45;10.25;;;1.92;;
43998;SDS011;51319;52.162;5.302;2024-01-16T01:34:17;16.50;;;3.03;;
43998;SDS011;51319;52.162;5.302;2024-01-16T01:36:44;10.63;;;1.98;;
43998;SDS011;51319;52.162;5.302;2024-01-16T01:39:11;15.23;;;2.10;;
43998;SDS011;51319;52.162;5.302;2024-01-16T01:41:38;12.68;;;2.00;;
43998;SDS011;51319;52.162;5.302;2024-01-16T01:44:06;17.15;;;2.60;;
43998;SDS011;51319;52.162;5.302;2024-01-16T01:46:33;38.72;;;8.00;;
43998;SDS011;51319;52.162;5.302;2024-01-16T01:49:02;32.83;;;7.10;;
43998;SDS011;51319;52.162;5.302;2024-01-16T01:51:30;16.58;;;2.28;;
43998;SDS011;51319;52.162;5.302;2024-01-16T01:53:57;13.57;;;2.10;;
43998;SDS011;51319;52.162;5.302;2024-01-16T01:56:28;13.70;;;2.00;;
43998;SDS011;51319;52.162;5.302;2024-01-16T01:58:56;16.42;;;1.90;;
43998;SDS011;51319;52.162;5.302;2024-01-16T02:01:25;20.73;;;2.60;;
43998;SDS011;51319;52.162;5.302;2024-01-16T02:03:54;16.25;;;2.53;;
43998;SDS011;51319;52.162;5.302;2024-01-16T02:06:23;23.33;;;3.70;;
43998;SDS011;51319;52.162;5.302;2024-01-16T02:08:50;36.25;;;5.93;;
43998;SDS011;51319;52.162;5.302;2024-01-16T02:11:18;23.52;;;4.00;;
43998;SDS011;51319;52.162;5.302;2024-01-16T02:13:44;20.38;;;4.90;;
43998;SDS011;51319;52.162;5.302;2024-01-16T02:16:22;19.20;;;2.20;;
43998;SDS011;51319;52.162;5.302;2024-01-16T02:18:50;16.80;;;2.03;;
43998;SDS011;51319;52.162;5.302;2024-01-16T02:21:20;21.23;;;2.03;;
43998;SDS011;51319;52.162;5.302;2024-01-16T02:23:48;22.63;;;2.00;;
43998;SDS011;51319;52.162;5.302;2024-01-16T02:26:16;20.95;;;2.03;;
43998;SDS011;51319;52.162;5.302;2024-01-16T02:28:44;9.68;;;1.50;;
43998;SDS011;51319;52.162;5.302;2024-01-16T02:31:11;41.88;;;7.75;;
43998;SDS011;51319;52.162;5.302;2024-01-16T02:33:38;11.57;;;1.90;;
43998;SDS011;51319;52.162;5.302;2024-01-16T02:36:05;27.42;;;4.45;;
43998;SDS011;51319;52.162;5.302;2024-01-16T02:38:32;20.20;;;3.67;;
43998;SDS011;51319;52.162;5.302;2024-01-16T02:40:59;23.65;;;4.53;;
43998;SDS011;51319;52.162;5.302;2024-01-16T02:43:26;27.50;;;4.18;;
43998;SDS011;51319;52.162;5.302;2024-01-16T02:45:53;14.38;;;1.73;;
43998;SDS011;51319;52.162;5.302;2024-01-16T02:48:20;8.10;;;1.15;;
43998;SDS011;51319;52.162;5.302;2024-01-16T02:50:47;7.22;;;1.40;;
43998;SDS011;51319;52.162;5.302;2024-01-16T02:53:14;16.38;;;2.03;;
43998;SDS011;51319;52.162;5.302;2024-01-16T02:55:42;12.15;;;1.63;;
43998;SDS011;51319;52.162;5.302;2024-01-16T02:58:09;15.98;;;1.67;;
43998;SDS011;51319;52.162;5.302;2024-01-16T03:00:36;5.65;;;1.25;;
43998;SDS011;51319;52.162;5.302;2024-01-16T03:03:03;9.20;;;1.13;;
43998;SDS011;51319;52.162;5.302;2024-01-16T03:05:31;9.52;;;1.73;;
43998;SDS011;51319;52.162;5.302;2024-01-16T03:07:58;15.25;;;3.63;;
43998;SDS011;51319;52.162;5.302;2024-01-16T03:10:25;18.20;;;3.40;;
43998;SDS011;51319;52.162;5.302;2024-01-16T03:12:52;14.10;;;2.05;;
43998;SDS011;51319;52.162;5.302;2024-01-16T03:15:19;9.85;;;2.03;;
43998;SDS011;51319;52.162;5.302;2024-01-16T03:17:47;7.30;;;1.20;;
43998;SDS011;51319;52.162;5.302;2024-01-16T03:20:16;13.88;;;1.10;;
43998;SDS011;51319;52.162;5.302;2024-01-16T03:22:44;3.47;;;1.05;;
43998;SDS011;51319;52.162;5.302;2024-01-16T03:25:11;7.05;;;1.10;;
43998;SDS011;51319;52.162;5.302;2024-01-16T03:27:38;12.63;;;1.10;;
43998;SDS011;51319;52.162;5.302;2024-01-16T03:30:05;4.30;;;0.95;;
43998;SDS011;51319;52.162;5.302;2024-01-16T03:32:35;11.15;;;0.98;;
43998;SDS011;51319;52.162;5.302;2024-01-16T03:35:03;7.50;;;1.15;;
43998;SDS011;51319;52.162;5.302;2024-01-16T03:37:33;5.43;;;0.90;;
43998;SDS011;51319;52.162;5.302;2024-01-16T03:40:00;3.20;;;0.65;;
43998;SDS011;51319;52.162;5.302;2024-01-16T03:42:27;7.65;;;0.80;;
43998;SDS011;51319;52.162;5.302;2024-01-16T03:44:54;7.80;;;1.42;;
43998;SDS011;51319;52.162;5.302;2024-01-16T03:47:21;8.75;;;1.02;;
43998;SDS011;51319;52.162;5.302;2024-01-16T03:49:49;2.03;;;0.68;;
43998;SDS011;51319;52.162;5.302;2024-01-16T03:52:17;7.32;;;0.70;;
43998;SDS011;51319;52.162;5.302;2024-01-16T03:54:44;6.75;;;0.80;;
43998;SDS011;51319;52.162;5.302;2024-01-16T03:57:11;11.15;;;1.02;;
43998;SDS011;51319;52.162;5.302;2024-01-16T03:59:38;3.72;;;0.80;;
43998;SDS011;51319;52.162;5.302;2024-01-16T04:02:05;7.25;;;1.20;;
43998;SDS011;51319;52.162;5.302;2024-01-16T04:04:32;6.85;;;0.80;;
43998;SDS011;51319;52.162;5.302;2024-01-16T04:06:59;6.47;;;1.05;;
43998;SDS011;51319;52.162;5.302;2024-01-16T04:09:26;9.80;;;0.98;;
43998;SDS011;51319;52.162;5.302;2024-01-16T04:11:53;6.63;;;1.00;;
43998;SDS011;51319;52.162;5.302;2024-01-16T04:14:20;9.05;;;0.65;;
43998;SDS011;51319;52.162;5.302;2024-01-16T04:16:47;5.50;;;0.73;;
43998;SDS011;51319;52.162;5.302;2024-01-16T04:19:14;7.47;;;0.90;;
43998;SDS011;51319;52.162;5.302;2024-01-16T04:21:41;3.63;;;1.13;;
43998;SDS011;51319;52.162;5.302;2024-01-16T04:24:08;12.95;;;0.98;;
43998;SDS011;51319;52.162;5.302;2024-01-16T04:26:35;4.88;;;1.70;;
43998;SDS011;51319;52.162;5.302;2024-01-16T04:29:04;6.97;;;0.73;;
43998;SDS011;51319;52.162;5.302;2024-01-16T04:31:32;4.32;;;0.85;;
43998;SDS011;51319;52.162;5.302;2024-01-16T04:34:04;6.75;;;1.30;;
43998;SDS011;51319;52.162;5.302;2024-01-16T04:36:31;5.00;;;0.68;;
43998;SDS011;51319;52.162;5.302;2024-01-16T04:38:58;8.57;;;1.55;;
43998;SDS011;51319;52.162;5.302;2024-01-16T04:41:26;12.52;;;2.95;;
43998;SDS011;51319;52.162;5.302;2024-01-16T04:47:45;11.88;;;1.15;;
43998;SDS011;51319;52.162;5.302;2024-01-16T04:50:12;10.88;;;1.30;;
43998;SDS011;51319;52.162;5.302;2024-01-16T04:52:39;16.42;;;1.10;;
43998;SDS011;51319;52.162;5.302;2024-01-16T04:55:05;12.05;;;1.60;;
43998;SDS011;51319;52.162;5.302;2024-01-16T04:57:33;10.82;;;1.25;;
43998;SDS011;51319;52.162;5.302;2024-01-16T05:00:01;23.52;;;1.98;;
43998;SDS011;51319;52.162;5.302;2024-01-16T05:02:33;12.15;;;1.35;;
43998;SDS011;51319;52.162;5.302;2024-01-16T05:05:00;11.70;;;1.90;;
43998;SDS011;51319;52.162;5.302;2024-01-16T05:07:27;12.98;;;1.80;;
43998;SDS011;51319;52.162;5.302;2024-01-16T05:09:54;16.77;;;1.58;;
43998;SDS011;51319;52.162;5.302;2024-01-16T05:12:21;12.30;;;1.50;;
43998;SDS011;51319;52.162;5.302;2024-01-16T05:14:49;10.05;;;1.50;;
43998;SDS011;51319;52.162;5.302;2024-01-16T05:17:18;14.30;;;1.80;;
43998;SDS011;51319;52.162;5.302;2024-01-16T05:19:45;10.10;;;1.35;;
43998;SDS011;51319;52.162;5.302;2024-01-16T05:22:12;11.05;;;1.60;;
43998;SDS011;51319;52.162;5.302;2024-01-16T05:24:38;12.75;;;1.73;;
43998;SDS011;51319;52.162;5.302;2024-01-16T05:27:05;6.90;;;1.60;;
43998;SDS011;51319;52.162;5.302;2024-01-16T05:29:32;14.15;;;2.05;;
43998;SDS011;51319;52.162;5.302;2024-01-16T05:31:59;13.95;;;2.33;;
43998;SDS011;51319;52.162;5.302;2024-01-16T05:34:26;36.22;;;17.85;;
43998;SDS011;51319;52.162;5.302;2024-01-16T05:36:54;50.22;;;19.90;;
43998;SDS011;51319;52.162;5.302;2024-01-16T05:39:21;31.42;;;11.90;;
43998;SDS011;51319;52.162;5.302;2024-01-16T05:41:48;16.90;;;2.70;;
43998;SDS011;51319;52.162;5.302;2024-01-16T05:44:16;12.80;;;2.47;;
43998;SDS011;51319;52.162;5.302;2024-01-16T05:46:43;8.55;;;2.03;;
43998;SDS011;51319;52.162;5.302;2024-01-16T05:49:09;6.15;;;2.13;;
43998;SDS011;51319;52.162;5.302;2024-01-16T05:51:36;10.07;;;2.75;;
43998;SDS011;51319;52.162;5.302;2024-01-16T05:54:03;16.60;;;2.30;;
43998;SDS011;51319;52.162;5.302;2024-01-16T05:56:31;9.10;;;2.15;;
43998;SDS011;51319;52.162;5.302;2024-01-16T05:58:58;9.55;;;2.47;;
43998;SDS011;51319;52.162;5.302;2024-01-16T06:01:25;7.25;;;2.35;;
43998;SDS011;51319;52.162;5.302;2024-01-16T06:03:53;11.57;;;2.78;;
43998;SDS011;51319;52.162;5.302;2024-01-16T06:06:20;11.40;;;2.40;;
43998;SDS011;51319;52.162;5.302;2024-01-16T06:08:47;7.80;;;3.35;;
43998;SDS011;51319;52.162;5.302;2024-01-16T06:11:14;10.18;;;2.58;;
43998;SDS011;51319;52.162;5.302;2024-01-16T06:13:41;15.40;;;2.72;;
43998;SDS011;51319;52.162;5.302;2024-01-16T06:16:08;15.50;;;2.60;;
43998;SDS011;51319;52.162;5.302;2024-01-16T06:18:36;13.98;;;4.35;;
43998;SDS011;51319;52.162;5.302;2024-01-16T06:21:03;14.90;;;3.15;;
43998;SDS011;51319;52.162;5.302;2024-01-16T06:23:30;14.38;;;3.55;;
43998;SDS011;51319;52.162;5.302;2024-01-16T06:25:57;20.00;;;4.38;;
43998;SDS011;51319;52.162;5.302;2024-01-16T06:28:26;22.73;;;3.90;;
43998;SDS011;51319;52.162;5.302;2024-01-16T06:30:53;20.13;;;5.57;;
43998;SDS011;51319;52.162;5.302;2024-01-16T06:33:20;23.85;;;3.97;;
43998;SDS011;51319;52.162;5.302;2024-01-16T06:35:47;40.08;;;13.40;;
43998;SDS011;51319;52.162;5.302;2024-01-16T06:40:45;33.47;;;12.60;;
43998;SDS011;51319;52.162;5.302;2024-01-16T06:43:12;25.92;;;11.95;;
43998;SDS011;51319;52.162;5.302;2024-01-16T06:45:42;25.20;;;5.65;;
43998;SDS011;51319;52.162;5.302;2024-01-16T06:48:09;19.88;;;4.50;;
43998;SDS011;51319;52.162;5.302;2024-01-16T06:50:37;11.70;;;2.90;;
43998;SDS011;51319;52.162;5.302;2024-01-16T06:53:04;15.00;;;4.85;;
43998;SDS011;51319;52.162;5.302;2024-01-16T06:55:31;16.77;;;5.80;;
43998;SDS011;51319;52.162;5.302;2024-01-16T06:57:58;19.23;;;6.97;;
43998;SDS011;51319;52.162;5.302;2024-01-16T07:00:25;10.38;;;3.55;;
43998;SDS011;51319;52.162;5.302;2024-01-16T07:02:53;20.58;;;6.90;;
43998;SDS011;51319;52.162;5.302;2024-01-16T07:05:21;11.30;;;4.50;;
43998;SDS011;51319;52.162;5.302;2024-01-16T07:07:48;18.73;;;5.13;;
43998;SDS011;51319;52.162;5.302;2024-01-16T07:10:15;26.13;;;5.00;;
43998;SDS011;51319;52.162;5.302;2024-01-16T07:12:45;26.75;;;6.28;;
43998;SDS011;51319;52.162;5.302;2024-01-16T07:15:12;25.90;;;5.20;;
43998;SDS011;51319;52.162;5.302;2024-01-16T07:17:39;21.80;;;4.90;;
43998;SDS011;51319;52.162;5.302;2024-01-16T07:20:07;20.33;;;5.47;;
43998;SDS011;51319;52.162;5.302;2024-01-16T07:22:34;21.10;;;5.00;;
43998;SDS011;51319;52.162;5.302;2024-01-16T07:25:02;16.55;;;5.32;;
43998;SDS011;51319;52.162;5.302;2024-01-16T07:27:29;29.02;;;6.25;;
43998;SDS011;51319;52.162;5.302;2024-01-16T07:29:56;25.52;;;6.32;;
43998;SDS011;51319;52.162;5.302;2024-01-16T07:32:23;27.15;;;6.60;;
43998;SDS011;51319;52.162;5.302;2024-01-16T07:34:50;22.15;;;6.93;;
43998;SDS011;51319;52.162;5.302;2024-01-16T07:37:18;22.65;;;6.95;;
43998;SDS011;51319;52.162;5.302;2024-01-16T07:39:45;31.45;;;14.23;;
43998;SDS011;51319;52.162;5.302;2024-01-16T07:42:12;30.52;;;8.75;;
43998;SDS011;51319;52.162;5.302;2024-01-16T07:44:41;21.15;;;7.90;;
43998;SDS011;51319;52.162;5.302;2024-01-16T07:47:09;25.38;;;8.13;;
43998;SDS011;51319;52.162;5.302;2024-01-16T07:52:21;27.23;;;9.32;;
43998;SDS011;51319;52.162;5.302;2024-01-16T07:54:48;26.80;;;8.75;;
43998;SDS011;51319;52.162;5.302;2024-01-16T07:57:15;28.55;;;11.13;;
43998;SDS011;51319;52.162;5.302;2024-01-16T07:59:42;27.40;;;9.55;;
43998;SDS011;51319;52.162;5.302;2024-01-16T08:02:09;25.08;;;9.57;;
43998;SDS011;51319;52.162;5.302;2024-01-16T08:04:36;34.60;;;11.93;;
43998;SDS011;51319;52.162;5.302;2024-01-16T08:07:03;48.90;;;12.77;;
43998;SDS011;51319;52.162;5.302;2024-01-16T08:09:30;37.65;;;12.65;;
43998;SDS011;51319;52.162;5.302;2024-01-16T08:11:57;31.50;;;10.13;;
43998;SDS011;51319;52.162;5.302;2024-01-16T08:14:24;35.40;;;11.55;;
43998;SDS011;51319;52.162;5.302;2024-01-16T08:16:52;30.65;;;11.40;;
43998;SDS011;51319;52.162;5.302;2024-01-16T08:38:47;31.67;;;10.68;;
43998;SDS011;51319;52.162;5.302;2024-01-16T08:41:14;37.92;;;11.57;;
43998;SDS011;51319;52.162;5.302;2024-01-16T08:43:41;38.47;;;11.10;;
43998;SDS011;51319;52.162;5.302;2024-01-16T08:48:35;29.83;;;10.38;;
43998;SDS011;51319;52.162;5.302;2024-01-16T08:51:04;42.30;;;12.77;;
43998;SDS011;51319;52.162;5.302;2024-01-16T08:53:33;36.58;;;11.63;;
43998;SDS011;51319;52.162;5.302;2024-01-16T08:58:46;39.90;;;13.23;;
43998;SDS011;51319;52.162;5.302;2024-01-16T09:01:13;31.90;;;10.35;;
43998;SDS011;51319;52.162;5.302;2024-01-16T09:03:40;30.65;;;10.65;;
43998;SDS011;51319;52.162;5.302;2024-01-16T09:06:09;30.63;;;9.13;;
43998;SDS011;51319;52.162;5.302;2024-01-16T09:08:37;31.92;;;8.10;;
43998;SDS011;51319;52.162;5.302;2024-01-16T09:11:04;27.17;;;8.60;;
43998;SDS011;51319;52.162;5.302;2024-01-16T09:13:31;25.48;;;7.18;;
43998;SDS011;51319;52.162;5.302;2024-01-16T09:15:58;26.08;;;6.75;;
43998;SDS011;51319;52.162;5.302;2024-01-16T09:18:26;17.10;;;6.45;;
43998;SDS011;51319;52.162;5.302;2024-01-16T09:20:55;21.75;;;5.93;;
43998;SDS011;51319;52.162;5.302;2024-01-16T09:23:23;16.73;;;5.28;;
43998;SDS011;51319;52.162;5.302;2024-01-16T09:25:50;27.75;;;5.68;;
43998;SDS011;51319;52.162;5.302;2024-01-16T09:28:17;22.77;;;4.93;;
43998;SDS011;51319;52.162;5.302;2024-01-16T09:30:44;19.98;;;5.53;;
43998;SDS011;51319;52.162;5.302;2024-01-16T09:33:12;16.38;;;4.97;;
43998;SDS011;51319;52.162;5.302;2024-01-16T09:35:40;19.70;;;4.70;;
43998;SDS011;51319;52.162;5.302;2024-01-16T09:38:07;22.05;;;5.22;;
43998;SDS011;51319;52.162;5.302;2024-01-16T09:40:35;15.13;;;4.35;;
43998;SDS011;51319;52.162;5.302;2024-01-16T09:43:02;17.95;;;4.70;;
43998;SDS011;51319;52.162;5.302;2024-01-16T09:45:30;10.88;;;4.00;;
43998;SDS011;51319;52.162;5.302;2024-01-16T09:47:59;25.40;;;5.13;;
43998;SDS011;51319;52.162;5.302;2024-01-16T09:50:28;12.38;;;3.53;;
43998;SDS011;51319;52.162;5.302;2024-01-16T09:52:55;13.73;;;5.47;;
43998;SDS011;51319;52.162;5.302;2024-01-16T09:55:25;15.18;;;4.03;;
43998;SDS011;51319;52.162;5.302;2024-01-16T09:57:53;12.82;;;3.50;;
43998;SDS011;51319;52.162;5.302;2024-01-16T10:00:20;23.60;;;4.97;;
43998;SDS011;51319;52.162;5.302;2024-01-16T10:02:47;18.27;;;4.40;;
43998;SDS011;51319;52.162;5.302;2024-01-16T10:05:16;12.65;;;3.95;;
43998;SDS011;51319;52.162;5.302;2024-01-16T10:07:43;12.98;;;3.42;;
43998;SDS011;51319;52.162;5.302;2024-01-16T10:10:11;11.93;;;3.47;;
43998;SDS011;51319;52.162;5.302;2024-01-16T10:12:38;12.48;;;3.35;;
43998;SDS011;51319;52.162;5.302;2024-01-16T10:15:08;16.65;;;3.22;;
43998;SDS011;51319;52.162;5.302;2024-01-16T10:17:39;15.23;;;3.72;;
43998;SDS011;51319;52.162;5.302;2024-01-16T10:20:10;10.02;;;3.42;;
43998;SDS011;51319;52.162;5.302;2024-01-16T10:22:52;22.20;;;3.50;;
43998;SDS011;51319;52.162;5.302;2024-01-16T10:25:20;17.67;;;3.72;;
43998;SDS011;51319;52.162;5.302;2024-01-16T10:27:48;13.57;;;3.95;;
43998;SDS011;51319;52.162;5.302;2024-01-16T10:30:16;13.43;;;3.00;;
43998;SDS011;51319;52.162;5.302;2024-01-16T10:32:49;21.00;;;3.55;;
43998;SDS011;51319;52.162;5.302;2024-01-16T10:35:17;10.63;;;2.80;;
43998;SDS011;51319;52.162;5.302;2024-01-16T10:40:18;18.73;;;4.00;;
43998;SDS011;51319;52.162;5.302;2024-01-16T10:42:57;13.38;;;4.68;;
43998;SDS011;51319;52.162;5.302;2024-01-16T10:45:28;15.35;;;5.22;;
43998;SDS011;51319;52.162;5.302;2024-01-16T10:48:03;12.00;;;3.50;;
43998;SDS011;51319;52.162;5.302;2024-01-16T10:50:35;29.15;;;8.48;;
43998;SDS011;51319;52.162;5.302;2024-01-16T10:53:05;12.27;;;3.90;;
43998;SDS011;51319;52.162;5.302;2024-01-16T10:55:51;10.88;;;3.25;;
43998;SDS011;51319;52.162;5.302;2024-01-16T10:58:21;12.38;;;2.65;;
43998;SDS011;51319;52.162;5.302;2024-01-16T11:00:50;8.32;;;2.00;;
43998;SDS011;51319;52.162;5.302;2024-01-16T11:03:20;8.27;;;2.55;;
43998;SDS011;51319;52.162;5.302;2024-01-16T11:06:09;12.45;;;2.10;;
43998;SDS011;51319;52.162;5.302;2024-01-16T11:08:37;5.00;;;1.50;;
43998;SDS011;51319;52.162;5.302;2024-01-16T11:11:06;7.18;;;1.80;;
43998;SDS011;51319;52.162;5.302;2024-01-16T11:13:35;11.43;;;2.20;;
43998;SDS011;51319;52.162;5.302;2024-01-16T11:16:03;10.88;;;2.10;;
43998;SDS011;51319;52.162;5.302;2024-01-16T11:18:31;10.57;;;2.63;;
43998;SDS011;51319;52.162;5.302;2024-01-16T11:21:05;14.25;;;2.80;;
43998;SDS011;51319;52.162;5.302;2024-01-16T11:23:40;9.98;;;2.50;;
43998;SDS011;51319;52.162;5.302;2024-01-16T11:28:50;19.08;;;6.78;;
43998;SDS011;51319;52.162;5.302;2024-01-16T11:31:33;10.23;;;3.53;;
43998;SDS011;51319;52.162;5.302;2024-01-16T11:34:01;12.77;;;3.67;;
43998;SDS011;51319;52.162;5.302;2024-01-16T11:36:42;16.17;;;6.93;;
43998;SDS011;51319;52.162;5.302;2024-01-16T11:39:19;17.02;;;8.00;;
43998;SDS011;51319;52.162;5.302;2024-01-16T11:41:55;13.15;;;6.47;;
43998;SDS011;51319;52.162;5.302;2024-01-16T11:44:36;10.18;;;3.78;;
43998;SDS011;51319;52.162;5.302;2024-01-16T11:47:19;7.30;;;2.35;;
43998;SDS011;51319;52.162;5.302;2024-01-16T11:49:48;4.68;;;1.75;;
43998;SDS011;51319;52.162;5.302;2024-01-16T11:58:09;7.95;;;2.00;;
43998;SDS011;51319;52.162;5.302;2024-01-16T12:33:51;10.68;;;2.00;;
43998;SDS011;51319;52.162;5.302;2024-01-16T12:36:29;6.93;;;1.48;;
43998;SDS011;51319;52.162;5.302;2024-01-16T12:38:56;6.47;;;1.75;;
43998;SDS011;51319;52.162;5.302;2024-01-16T12:41:24;10.55;;;2.20;;
43998;SDS011;51319;52.162;5.302;2024-01-16T12:44:07;6.22;;;1.83;;
43998;SDS011;51319;52.162;5.302;2024-01-16T13:00:23;7.10;;;2.00;;
43998;SDS011;51319;52.162;5.302;2024-01-16T13:02:52;9.25;;;2.15;;
43998;SDS011;51319;52.162;5.302;2024-01-16T13:05:19;12.18;;;2.15;;
43998;SDS011;51319;52.162;5.302;2024-01-16T13:07:58;14.57;;;5.78;;
43998;SDS011;51319;52.162;5.302;2024-01-16T13:10:27;15.30;;;7.57;;
43998;SDS011;51319;52.162;5.302;2024-01-16T13:13:12;14.30;;;4.60;;
43998;SDS011;51319;52.162;5.302;2024-01-16T13:15:40;7.00;;;2.20;;
43998;SDS011;51319;52.162;5.302;2024-01-16T13:18:16;6.95;;;2.47;;
43998;SDS011;51319;52.162;5.302;2024-01-16T13:20:49;7.50;;;2.08;;
43998;SDS011;51319;52.162;5.302;2024-01-16T13:23:17;6.20;;;2.10;;
43998;SDS011;51319;52.162;5.302;2024-01-16T13:25:54;16.50;;;2.33;;
43998;SDS011;51319;52.162;5.302;2024-01-16T13:28:30;6.53;;;2.50;;
43998;SDS011;51319;52.162;5.302;2024-01-16T13:30:57;7.50;;;2.95;;
43998;SDS011;51319;52.162;5.302;2024-01-16T13:33:25;18.55;;;3.35;;
43998;SDS011;51319;52.162;5.302;2024-01-16T13:36:11;10.23;;;2.53;;
43998;SDS011;51319;52.162;5.302;2024-01-16T13:38:39;11.02;;;2.33;;
43998;SDS011;51319;52.162;5.302;2024-01-16T13:41:06;4.47;;;1.90;;
43998;SDS011;51319;52.162;5.302;2024-01-16T13:43:33;5.65;;;2.35;;
43998;SDS011;51319;52.162;5.302;2024-01-16T13:46:00;9.00;;;2.28;;
43998;SDS011;51319;52.162;5.302;2024-01-16T13:48:27;7.50;;;2.03;;
43998;SDS011;51319;52.162;5.302;2024-01-16T13:50:55;7.68;;;2.30;;
43998;SDS011;51319;52.162;5.302;2024-01-16T13:53:22;8.95;;;2.20;;
43998;SDS011;51319;52.162;5.302;2024-01-16T13:55:49;7.32;;;1.80;;
43998;SDS011;51319;52.162;5.302;2024-01-16T13:58:16;11.15;;;2.13;;
43998;SDS011;51319;52.162;5.302;2024-01-16T14:00:44;10.07;;;3.35;;
43998;SDS011;51319;52.162;5.302;2024-01-16T14:03:11;13.85;;;5.30;;
43998;SDS011;51319;52.162;5.302;2024-01-16T14:05:39;7.15;;;2.53;;
43998;SDS011;51319;52.162;5.302;2024-01-16T14:08:08;11.20;;;2.88;;
43998;SDS011;51319;52.162;5.302;2024-01-16T14:10:39;5.55;;;1.88;;
43998;SDS011;51319;52.162;5.302;2024-01-16T14:13:06;6.50;;;2.55;;
43998;SDS011;51319;52.162;5.302;2024-01-16T14:15:33;6.90;;;2.15;;
43998;SDS011;51319;52.162;5.302;2024-01-16T14:18:00;7.18;;;1.73;;
43998;SDS011;51319;52.162;5.302;2024-01-16T14:20:27;3.53;;;1.42;;
43998;SDS011;51319;52.162;5.302;2024-01-16T14:22:54;6.53;;;1.73;;
43998;SDS011;51319;52.162;5.302;2024-01-16T14:25:26;6.88;;;1.80;;
43998;SDS011;51319;52.162;5.302;2024-01-16T14:28:00;4.40;;;1.80;;
43998;SDS011;51319;52.162;5.302;2024-01-16T14:30:34;6.05;;;1.40;;
43998;SDS011;51319;52.162;5.302;2024-01-16T14:33:04;5.20;;;1.55;;
43998;SDS011;51319;52.162;5.302;2024-01-16T14:35:33;4.78;;;2.00;;
43998;SDS011;51319;52.162;5.302;2024-01-16T14:38:00;7.50;;;2.33;;
43998;SDS011;51319;52.162;5.302;2024-01-16T14:40:27;8.40;;;2.35;;
43998;SDS011;51319;52.162;5.302;2024-01-16T14:42:55;14.15;;;2.53;;
43998;SDS011;51319;52.162;5.302;2024-01-16T14:45:26;7.50;;;1.80;;
43998;SDS011;51319;52.162;5.302;2024-01-16T14:47:53;10.27;;;3.45;;
43998;SDS011;51319;52.162;5.302;2024-01-16T14:50:23;3.72;;;1.30;;
43998;SDS011;51319;52.162;5.302;2024-01-16T14:57:56;4.63;;;1.30;;
43998;SDS011;51319;52.162;5.302;2024-01-16T15:00:26;5.65;;;1.65;;
43998;SDS011;51319;52.162;5.302;2024-01-16T15:02:53;5.82;;;1.60;;
43998;SDS011;51319;52.162;5.302;2024-01-16T15:05:20;10.13;;;4.10;;
43998;SDS011;51319;52.162;5.302;2024-01-16T15:07:48;22.50;;;7.55;;
43998;SDS011;51319;52.162;5.302;2024-01-16T15:10:18;7.38;;;2.90;;
43998;SDS011;51319;52.162;5.302;2024-01-16T15:12:45;11.07;;;2.97;;
43998;SDS011;51319;52.162;5.302;2024-01-16T15:15:14;7.75;;;3.03;;
43998;SDS011;51319;52.162;5.302;2024-01-16T15:22:58;7.95;;;2.83;;
43998;SDS011;51319;52.162;5.302;2024-01-16T15:25:25;6.60;;;2.65;;
43998;SDS011;51319;52.162;5.302;2024-01-16T15:27:52;7.18;;;2.90;;
43998;SDS011;51319;52.162;5.302;2024-01-16T15:32:56;5.95;;;3.40;;
43998;SDS011;51319;52.162;5.302;2024-01-16T15:35:23;9.90;;;3.85;;
43998;SDS011;51319;52.162;5.302;2024-01-16T15:37:51;5.57;;;2.70;;
43998;SDS011;51319;52.162;5.302;2024-01-16T15:40:20;11.88;;;3.53;;
43998;SDS011;51319;52.162;5.302;2024-01-16T15:42:49;9.50;;;3.33;;
43998;SDS011;51319;52.162;5.302;2024-01-16T15:45:17;9.77;;;4.00;;
43998;SDS011;51319;52.162;5.302;2024-01-16T15:47:44;17.10;;;4.70;;
43998;SDS011;51319;52.162;5.302;2024-01-16T15:50:11;12.75;;;4.60;;
43998;SDS011;51319;52.162;5.302;2024-01-16T15:52:38;13.18;;;4.10;;
43998;SDS011;51319;52.162;5.302;2024-01-16T15:55:05;10.73;;;4.18;;
43998;SDS011;51319;52.162;5.302;2024-01-16T15:57:33;15.65;;;4.93;;
43998;SDS011;51319;52.162;5.302;2024-01-16T16:00:00;13.88;;;3.60;;
43998;SDS011;51319;52.162;5.302;2024-01-16T16:02:31;6.82;;;3.28;;
43998;SDS011;51319;52.162;5.302;2024-01-16T16:04:59;10.70;;;3.97;;
43998;SDS011;51319;52.162;5.302;2024-01-16T16:07:27;9.63;;;4.13;;
43998;SDS011;51319;52.162;5.302;2024-01-16T16:09:54;12.63;;;3.58;;
43998;SDS011;51319;52.162;5.302;2024-01-16T16:12:21;9.80;;;4.18;;
43998;SDS011;51319;52.162;5.302;2024-01-16T16:14:48;10.52;;;4.22;;
43998;SDS011;51319;52.162;5.302;2024-01-16T16:17:14;8.73;;;5.18;;
43998;SDS011;51319;52.162;5.302;2024-01-16T16:19:42;10.63;;;3.80;;
43998;SDS011;51319;52.162;5.302;2024-01-16T16:22:09;13.07;;;5.88;;
43998;SDS011;51319;52.162;5.302;2024-01-16T16:24:36;20.65;;;6.15;;
43998;SDS011;51319;52.162;5.302;2024-01-16T16:27:03;14.75;;;4.65;;
43998;SDS011;51319;52.162;5.302;2024-01-16T16:29:52;12.25;;;5.35;;